Time;durP1;ratioP1;P1;durP2;ratioP2;P2;SDS_P1;SDS_P2;PMS_P1;PMS_P2;Temp;Humidity;BMP_temperature;BMP_pressure;BME280_temperature;BME280_humidity;BME280_pressure;Samples;Min_cycle;Max_cycle;Signal;HPM_P1;HPM_P2
2024/02/14 00:00:13;;;;;;;2.50;1.30;;;18.70;57.40;;;;;;5009154;28;20113;-68
2024/02/14 00:02:39;;;;;;;1.55;1.08;;;18.70;57.30;;;;;;5006494;28;20034;-68
2024/02/14 00:05:05;;;;;;;1.13;1.00;;;18.70;57.40;;;;;;5011229;28;20045;-68
2024/02/14 00:07:31;;;;;;;1.90;1.10;;;18.70;58.10;;;;;;5006835;28;20493;-68
2024/02/14 00:09:56;;;;;;;1.70;0.93;;;18.70;57.50;;;;;;5005752;28;20060;-70
2024/02/14 00:12:24;;;;;;;1.63;0.85;;;18.70;57.10;;;;;;5002139;28;20278;-69
2024/02/14 00:14:50;;;;;;;1.13;0.85;;;18.70;57.30;;;;;;5011863;28;20034;-69
2024/02/14 00:17:15;;;;;;;1.20;1.02;;;18.70;57.30;;;;;;5002257;28;20059;-67
2024/02/14 00:19:41;;;;;;;1.58;1.10;;;18.70;57.30;;;;;;5007214;28;20770;-69
2024/02/14 00:22:06;;;;;;;1.60;1.17;;;18.70;57.30;;;;;;5002210;28;20030;-68
2024/02/14 00:24:32;;;;;;;1.25;1.10;;;18.60;57.20;;;;;;5008882;28;20034;-69
2024/02/14 00:26:58;;;;;;;2.25;1.30;;;18.60;57.30;;;;;;5007638;28;20033;-69
2024/02/14 00:29:26;;;;;;;1.58;1.20;;;18.60;57.30;;;;;;5007767;28;20093;-64
2024/02/14 00:31:51;;;;;;;1.52;1.15;;;18.60;57.30;;;;;;4997432;28;20049;-67
2024/02/14 00:34:17;;;;;;;1.30;1.20;;;18.60;57.30;;;;;;4999438;28;20092;-63
2024/02/14 00:36:42;;;;;;;1.13;0.85;;;18.60;57.10;;;;;;4997907;28;20069;-66
2024/02/14 00:39:09;;;;;;;1.88;1.08;;;18.70;57.30;;;;;;4998332;28;20071;-69
2024/02/14 00:41:35;;;;;;;1.50;0.90;;;18.60;57.10;;;;;;4997068;28;20060;-67
2024/02/14 00:44:02;;;;;;;1.80;1.05;;;18.60;57.00;;;;;;5005712;28;20509;-68
2024/02/14 00:46:28;;;;;;;1.30;1.20;;;18.60;57.10;;;;;;5003830;28;20124;-69
2024/02/14 00:48:54;;;;;;;2.05;1.10;;;18.60;57.20;;;;;;5002460;28;20120;-69
2024/02/14 00:51:21;;;;;;;1.52;1.13;;;18.60;57.10;;;;;;5002091;28;20030;-69
2024/02/14 00:53:46;;;;;;;2.63;1.30;;;18.60;57.10;;;;;;5004912;28;20033;-67
2024/02/14 00:56:11;;;;;;;2.20;1.30;;;18.60;57.10;;;;;;5007259;28;20033;-69
2024/02/14 00:58:37;;;;;;;1.25;0.90;;;18.60;57.10;;;;;;5009474;28;20571;-68
2024/02/14 01:01:02;;;;;;;2.30;1.20;;;18.60;57.00;;;;;;5005619;28;20033;-69
2024/02/14 01:03:28;;;;;;;3.17;1.30;;;18.60;57.10;;;;;;5006001;28;20117;-69
2024/02/14 01:05:54;;;;;;;2.95;1.17;;;18.60;57.10;;;;;;5004373;28;20041;-69
2024/02/14 01:08:20;;;;;;;1.60;1.27;;;18.50;56.90;;;;;;5002112;28;20034;-69
2024/02/14 01:10:46;;;;;;;1.83;0.90;;;18.50;57.10;;;;;;5002825;28;20033;-68
2024/02/14 01:13:12;;;;;;;1.33;1.10;;;18.50;57.00;;;;;;5000137;28;20025;-68
2024/02/14 01:15:37;;;;;;;5.13;1.27;;;18.50;56.80;;;;;;4998929;28;20394;-68
2024/02/14 01:18:03;;;;;;;1.42;0.98;;;18.50;56.80;;;;;;5006310;28;20456;-69
2024/02/14 01:20:29;;;;;;;1.00;0.90;;;18.50;57.00;;;;;;5006026;28;20021;-68
2024/02/14 01:22:54;;;;;;;1.38;1.10;;;18.50;57.00;;;;;;5007494;28;20041;-69
2024/02/14 01:25:20;;;;;;;2.25;1.15;;;18.50;57.10;;;;;;5002763;28;20119;-70
2024/02/14 01:27:45;;;;;;;1.45;1.02;;;18.50;57.20;;;;;;5013969;28;20037;-70
2024/02/14 01:30:11;;;;;;;1.08;0.93;;;18.50;57.20;;;;;;5009332;28;20030;-67
2024/02/14 01:32:37;;;;;;;2.58;1.00;;;18.50;57.20;;;;;;5004569;28;20042;-67
2024/02/14 01:35:03;;;;;;;2.08;1.00;;;18.50;57.20;;;;;;5003699;28;20057;-69
2024/02/14 01:37:30;;;;;;;1.75;0.98;;;18.50;57.10;;;;;;5011687;28;20134;-69
2024/02/14 01:39:55;;;;;;;1.58;1.10;;;18.50;57.30;;;;;;5008369;28;20037;-69
2024/02/14 01:42:21;;;;;;;1.15;1.00;;;18.40;57.30;;;;;;5005785;28;20241;-69
2024/02/14 01:44:46;;;;;;;1.30;0.90;;;18.40;57.30;;;;;;5012444;28;20026;-69
2024/02/14 01:47:13;;;;;;;1.48;0.90;;;18.50;57.30;;;;;;5005245;28;20044;-67
2024/02/14 01:49:39;;;;;;;1.60;0.90;;;18.50;57.20;;;;;;5007662;28;20832;-69
2024/02/14 01:52:05;;;;;;;1.08;0.95;;;18.60;57.10;;;;;;5004819;28;20038;-71
2024/02/14 01:54:31;;;;;;;1.45;0.73;;;18.70;57.00;;;;;;5010050;28;20034;-69
2024/02/14 01:57:01;;;;;;;1.17;0.80;;;18.70;56.80;;;;;;5007658;28;20033;-69
2024/02/14 01:59:27;;;;;;;2.13;1.10;;;18.80;56.70;;;;;;4999436;28;20669;-65
2024/02/14 02:01:52;;;;;;;1.50;1.00;;;18.90;56.50;;;;;;5004259;28;20033;-69
2024/02/14 02:04:18;;;;;;;1.10;0.90;;;19.00;56.30;;;;;;4997923;28;20520;-69
2024/02/14 02:06:44;;;;;;;1.10;0.80;;;19.10;56.10;;;;;;5003914;28;20100;-67
2024/02/14 02:09:10;;;;;;;2.58;0.80;;;19.20;56.00;;;;;;5002788;28;20034;-69
2024/02/14 02:11:53;;;;;;;0.60;0.57;;;19.20;55.80;;;;;;5005177;28;20049;-67
2024/02/14 02:14:20;;;;;;;1.88;0.80;;;19.30;55.70;;;;;;4988932;28;20041;-69
2024/02/14 02:16:46;;;;;;;1.60;0.60;;;19.40;55.60;;;;;;5005229;28;20026;-68
2024/02/14 02:19:11;;;;;;;1.88;0.85;;;19.40;55.50;;;;;;5003327;28;20088;-69
2024/02/14 02:21:37;;;;;;;1.05;0.77;;;19.50;55.40;;;;;;5004642;28;20551;-69
2024/02/14 02:24:03;;;;;;;1.40;0.90;;;19.50;55.20;;;;;;5000415;28;20044;-68
2024/02/14 02:26:29;;;;;;;0.75;0.70;;;19.60;55.20;;;;;;5005467;28;20484;-68
2024/02/14 02:28:54;;;;;;;0.82;0.60;;;19.60;55.10;;;;;;5004721;28;20034;-68
2024/02/14 02:31:20;;;;;;;4.63;0.77;;;19.60;55.00;;;;;;5000139;28;20433;-67
2024/02/14 02:33:46;;;;;;;0.68;0.68;;;19.70;55.00;;;;;;5004591;28;20042;-66
2024/02/14 02:36:11;;;;;;;1.50;0.73;;;19.70;54.90;;;;;;5006353;28;20049;-68
2024/02/14 02:38:37;;;;;;;1.23;0.65;;;19.70;55.00;;;;;;5002417;28;20117;-67
2024/02/14 02:41:06;;;;;;;0.70;0.55;;;19.60;55.00;;;;;;5004638;28;20551;-67
2024/02/14 02:43:32;;;;;;;1.40;0.88;;;19.60;55.10;;;;;;5002113;28;20033;-67
2024/02/14 02:45:57;;;;;;;0.90;0.70;;;19.60;55.70;;;;;;5013379;28;20037;-68
2024/02/14 02:48:23;;;;;;;5.65;0.70;;;19.60;55.10;;;;;;5004643;28;20030;-68
2024/02/14 02:50:49;;;;;;;0.82;0.80;;;19.50;55.10;;;;;;5004733;28;20125;-68
2024/02/14 02:53:15;;;;;;;1.50;0.80;;;19.50;55.10;;;;;;5008762;28;20029;-68
2024/02/14 02:55:41;;;;;;;1.27;0.68;;;19.50;55.30;;;;;;5007546;28;20113;-67
2024/02/14 02:58:07;;;;;;;0.75;0.60;;;19.40;55.40;;;;;;5004610;28;20097;-65
2024/02/14 03:00:33;;;;;;;0.90;0.80;;;19.40;55.50;;;;;;5010878;28;20037;-65
2024/02/14 03:03:00;;;;;;;1.27;0.70;;;19.30;55.60;;;;;;5001792;28;20104;-66
2024/02/14 03:05:27;;;;;;;0.82;0.80;;;19.30;55.70;;;;;;4993474;28;21601;-64
2024/02/14 03:07:53;;;;;;;1.23;0.75;;;19.30;55.70;;;;;;4996824;28;20408;-63
2024/02/14 03:10:19;;;;;;;0.60;0.50;;;19.20;55.80;;;;;;5024377;23;20075;-53
2024/02/14 03:12:47;;;;;;;2.45;0.93;;;19.20;55.90;;;;;;5013971;28;20502;-45
2024/02/14 03:15:13;;;;;;;1.55;0.65;;;19.20;56.00;;;;;;5011745;28;20034;-45
2024/02/14 03:17:39;;;;;;;1.02;0.60;;;19.20;56.10;;;;;;5016656;28;20033;-45
2024/02/14 03:20:10;;;;;;;1.10;0.50;;;19.10;56.10;;;;;;5011836;28;20037;-50
2024/02/14 03:22:36;;;;;;;1.10;0.80;;;19.10;56.30;;;;;;5016627;28;20112;-51
2024/02/14 03:25:01;;;;;;;1.10;0.68;;;19.10;56.30;;;;;;5010553;28;20101;-50
2024/02/14 03:27:27;;;;;;;1.23;0.63;;;19.10;56.40;;;;;;5011060;28;21885;-45
2024/02/14 03:29:52;;;;;;;0.90;0.70;;;19.00;56.40;;;;;;5009688;28;20026;-49
2024/02/14 03:32:18;;;;;;;1.48;0.85;;;19.00;56.50;;;;;;5008127;28;20037;-53
2024/02/14 03:34:43;;;;;;;1.42;0.65;;;19.00;56.50;;;;;;5015955;28;20022;-45
2024/02/14 03:37:10;;;;;;;0.93;0.80;;;19.00;56.60;;;;;;5016354;28;20022;-45
2024/02/14 03:39:36;;;;;;;0.60;0.52;;;18.90;56.60;;;;;;5010730;28;20037;-52
2024/02/14 03:42:07;;;;;;;1.90;0.68;;;18.90;56.50;;;;;;5010609;28;20026;-46
2024/02/14 03:44:32;;;;;;;1.00;0.80;;;18.90;56.60;;;;;;5010592;28;20039;-52
2024/02/14 03:46:58;;;;;;;0.60;0.60;;;18.90;56.60;;;;;;5017033;28;20130;-50
2024/02/14 03:49:25;;;;;;;1.35;0.63;;;18.90;56.70;;;;;;5009086;28;20961;-44
2024/02/14 03:51:54;;;;;;;0.77;0.60;;;18.90;56.60;;;;;;5009123;28;20068;-47
2024/02/14 03:54:20;;;;;;;0.98;0.70;;;18.80;56.60;;;;;;5007414;28;20030;-48
2024/02/14 03:56:45;;;;;;;1.20;0.80;;;18.80;56.80;;;;;;5005115;28;20087;-53
2024/02/14 03:59:11;;;;;;;0.95;0.70;;;18.80;56.50;;;;;;5023590;28;20099;-46
2024/02/14 04:01:36;;;;;;;0.90;0.60;;;18.80;56.70;;;;;;5009345;28;20052;-52
2024/02/14 04:04:02;;;;;;;0.63;0.57;;;18.80;56.70;;;;;;5011868;28;20773;-48
2024/02/14 04:06:31;;;;;;;1.55;0.63;;;18.80;56.60;;;;;;5009401;28;20041;-45
2024/02/14 04:08:57;;;;;;;1.67;0.60;;;18.80;56.70;;;;;;5010360;28;20029;-52
2024/02/14 04:11:23;;;;;;;0.50;0.50;;;18.80;56.70;;;;;;5013133;28;20045;-45
2024/02/14 04:13:48;;;;;;;1.02;0.70;;;18.80;56.60;;;;;;5010531;28;20029;-46
2024/02/14 04:16:14;;;;;;;0.77;0.60;;;18.80;56.60;;;;;;5015229;28;20807;-45
2024/02/14 04:18:39;;;;;;;1.40;0.50;;;18.80;56.60;;;;;;5009506;28;20040;-48
2024/02/14 04:21:07;;;;;;;0.90;0.60;;;18.70;56.50;;;;;;5014544;28;20710;-53
2024/02/14 04:23:33;;;;;;;0.80;0.60;;;18.80;56.60;;;;;;5012313;28;20211;-53
2024/02/14 04:25:58;;;;;;;0.80;0.68;;;18.70;56.50;;;;;;5011005;28;20038;-49
2024/02/14 04:28:24;;;;;;;0.80;0.60;;;18.70;56.50;;;;;;5007176;28;20018;-45
2024/02/14 04:30:49;;;;;;;0.80;0.60;;;18.70;56.50;;;;;;5011749;28;20582;-53
2024/02/14 04:33:15;;;;;;;0.60;0.50;;;18.70;56.50;;;;;;5007625;28;20022;-46
2024/02/14 04:35:40;;;;;;;0.98;0.50;;;18.80;56.40;;;;;;5015918;28;20033;-46
2024/02/14 04:38:06;;;;;;;0.60;0.57;;;18.80;56.50;;;;;;5008969;28;20030;-56
2024/02/14 04:40:31;;;;;;;0.52;0.52;;;18.80;56.50;;;;;;5014476;28;20037;-52
2024/02/14 04:42:57;;;;;;;1.10;0.50;;;18.80;56.50;;;;;;5013817;28;20682;-46
2024/02/14 04:45:22;;;;;;;1.15;0.70;;;18.80;56.50;;;;;;5012618;28;20033;-47
2024/02/14 04:47:48;;;;;;;0.52;0.50;;;18.80;56.30;;;;;;5007850;28;20084;-52
2024/02/14 04:50:14;;;;;;;0.82;0.63;;;18.80;56.40;;;;;;5012107;28;20061;-50
2024/02/14 04:52:39;;;;;;;1.65;0.63;;;18.90;56.40;;;;;;5010586;28;20505;-45
2024/02/14 04:55:05;;;;;;;1.20;0.50;;;18.90;56.30;;;;;;5013645;28;20037;-47
2024/02/14 04:57:32;;;;;;;1.08;0.55;;;18.90;56.30;;;;;;5009072;28;20099;-45
2024/02/14 04:59:57;;;;;;;0.85;0.50;;;18.90;56.30;;;;;;5015714;28;20109;-46
2024/02/14 05:02:23;;;;;;;0.80;0.57;;;18.90;56.10;;;;;;5005875;28;20164;-45
2024/02/14 05:04:48;;;;;;;1.67;0.57;;;18.90;56.20;;;;;;5011713;28;20034;-52
2024/02/14 05:07:14;;;;;;;0.50;0.38;;;19.00;56.20;;;;;;5012367;28;20508;-45
2024/02/14 05:09:39;;;;;;;0.93;0.60;;;19.00;56.20;;;;;;5009153;28;20033;-46
2024/02/14 05:12:06;;;;;;;0.93;0.60;;;19.00;56.20;;;;;;4989838;28;20049;-47
2024/02/14 05:14:32;;;;;;;0.50;0.40;;;19.00;56.10;;;;;;5015381;28;20716;-46
2024/02/14 05:17:01;;;;;;;0.60;0.45;;;19.00;56.10;;;;;;5012314;28;20033;-45
2024/02/14 05:19:26;;;;;;;1.17;0.73;;;19.00;56.10;;;;;;5012379;28;20064;-55
2024/02/14 05:21:52;;;;;;;1.13;0.50;;;19.00;56.00;;;;;;5011886;28;20483;-45
2024/02/14 05:24:18;;;;;;;2.05;0.70;;;19.00;56.10;;;;;;5012051;28;20034;-45
2024/02/14 05:26:43;;;;;;;3.85;0.95;;;19.00;55.70;;;;;;5008773;28;20030;-46
2024/02/14 05:29:08;;;;;;;2.05;0.50;;;18.90;55.50;;;;;;5012534;28;20033;-55
2024/02/14 05:31:45;;;;;;;4.45;0.70;;;18.90;55.40;;;;;;5011896;28;20053;-47
2024/02/14 05:34:10;;;;;;;0.98;0.73;;;19.00;55.90;;;;;;5000482;28;20113;-52
2024/02/14 05:36:36;;;;;;;1.92;0.50;;;19.00;55.90;;;;;;5013543;28;20314;-45
2024/02/14 05:39:02;;;;;;;2.58;0.60;;;19.10;55.80;;;;;;5014574;28;20064;-46
2024/02/14 05:41:28;;;;;;;2.50;0.60;;;19.10;55.80;;;;;;5006135;28;20041;-45
2024/02/14 05:43:53;;;;;;;2.40;0.70;;;19.00;55.90;;;;;;5004806;28;20037;-53
2024/02/14 05:46:21;;;;;;;1.15;0.60;;;19.00;55.80;;;;;;5003632;28;20084;-56
2024/02/14 05:48:48;;;;;;;2.25;0.40;;;19.00;55.80;;;;;;5006420;28;20057;-46
2024/02/14 05:51:13;;;;;;;0.40;0.40;;;18.90;55.80;;;;;;5009148;28;20045;-52
2024/02/14 05:53:39;;;;;;;0.88;0.40;;;18.90;55.80;;;;;;5005304;28;20637;-51
2024/02/14 05:56:04;;;;;;;3.47;0.43;;;18.90;55.70;;;;;;5007540;28;20124;-45
2024/02/14 05:58:30;;;;;;;1.65;0.50;;;18.90;55.70;;;;;;5004936;28;20056;-47
2024/02/14 06:00:55;;;;;;;2.72;0.50;;;18.90;55.60;;;;;;5006129;28;20472;-57
2024/02/14 06:03:22;;;;;;;1.92;0.40;;;18.90;55.50;;;;;;5007072;28;20026;-53
2024/02/14 06:05:47;;;;;;;0.75;0.52;;;18.90;55.60;;;;;;5006413;28;20030;-55
2024/02/14 06:08:13;;;;;;;1.83;0.47;;;18.90;55.60;;;;;;5012806;28;20028;-44
2024/02/14 06:10:39;;;;;;;2.38;0.70;;;18.90;55.60;;;;;;5006196;28;20057;-46
2024/02/14 06:13:05;;;;;;;4.07;0.88;;;18.90;55.60;;;;;;5009283;28;20112;-48
2024/02/14 06:15:30;;;;;;;2.40;0.60;;;18.90;55.60;;;;;;5006311;28;20089;-47
2024/02/14 06:17:56;;;;;;;1.23;0.80;;;18.90;55.60;;;;;;5017860;28;20038;-49
2024/02/14 06:20:22;;;;;;;1.17;0.80;;;18.90;55.50;;;;;;5011537;28;20020;-49
2024/02/14 06:22:48;;;;;;;2.67;0.82;;;18.90;55.50;;;;;;5016611;28;20044;-47
2024/02/14 06:25:13;;;;;;;3.63;1.35;;;18.90;55.50;;;;;;5012994;28;20026;-48
2024/02/14 06:27:39;;;;;;;2.03;0.70;;;18.90;55.40;;;;;;5015707;28;20049;-47
2024/02/14 06:30:05;;;;;;;3.08;0.82;;;18.90;55.50;;;;;;5013232;28;20040;-47
2024/02/14 06:32:30;;;;;;;1.48;0.88;;;18.90;55.60;;;;;;5013896;28;20037;-46
2024/02/14 06:34:56;;;;;;;3.70;0.93;;;18.80;55.40;;;;;;5012574;28;20064;-47
2024/02/14 06:37:21;;;;;;;2.72;1.13;;;18.90;55.50;;;;;;5014551;28;20060;-46
2024/02/14 06:39:48;;;;;;;1.30;0.68;;;18.90;55.50;;;;;;5007805;28;20042;-47
2024/02/14 06:42:14;;;;;;;4.15;0.80;;;18.80;55.50;;;;;;5014277;28;20029;-48
2024/02/14 06:44:40;;;;;;;2.63;1.20;;;18.80;55.60;;;;;;5011211;28;20083;-49
2024/02/14 06:47:05;;;;;;;2.03;1.02;;;18.90;55.90;;;;;;5013397;28;20056;-49
2024/02/14 06:49:31;;;;;;;2.33;1.83;;;18.90;55.70;;;;;;5005785;28;20025;-48
2024/02/14 06:51:56;;;;;;;4.53;1.95;;;18.90;56.40;;;;;;5016862;28;20060;-49
2024/02/14 06:54:22;;;;;;;4.30;2.20;;;18.90;56.60;;;;;;5014971;28;20076;-47
2024/02/14 06:56:48;;;;;;;5.22;2.08;;;18.90;56.50;;;;;;5017266;28;20033;-48
2024/02/14 06:59:14;;;;;;;4.22;2.38;;;18.90;56.40;;;;;;5009709;28;20030;-48
2024/02/14 07:01:39;;;;;;;7.30;2.88;;;18.90;56.40;;;;;;5011253;28;20026;-48
2024/02/14 07:04:04;;;;;;;4.20;2.63;;;18.80;56.30;;;;;;5009317;28;20188;-47
2024/02/14 07:06:30;;;;;;;6.00;2.15;;;18.90;56.20;;;;;;5009959;28;20037;-47
2024/02/14 07:08:56;;;;;;;9.68;3.15;;;18.80;56.10;;;;;;5011481;28;20025;-49
2024/02/14 07:11:21;;;;;;;8.52;4.20;;;18.80;56.20;;;;;;5015810;28;20552;-50
2024/02/14 07:13:47;;;;;;;9.55;4.75;;;18.90;56.30;;;;;;5008303;28;20042;-46
2024/02/14 07:16:12;;;;;;;16.10;7.43;;;18.90;56.40;;;;;;5014429;28;20410;-48
2024/02/14 07:18:38;;;;;;;20.90;8.43;;;19.00;56.40;;;;;;5012469;28;20030;-47
2024/02/14 07:21:05;;;;;;;24.52;10.52;;;19.00;56.50;;;;;;5018001;28;20414;-48
2024/02/14 07:23:31;;;;;;;22.92;11.25;;;18.90;56.50;;;;;;5000113;28;20690;-49
2024/02/14 07:25:57;;;;;;;28.23;11.52;;;18.90;56.60;;;;;;5018593;28;20064;-47
2024/02/14 07:28:22;;;;;;;26.00;11.02;;;18.90;56.80;;;;;;5004068;28;20022;-47
2024/02/14 07:30:48;;;;;;;27.77;11.60;;;18.90;56.80;;;;;;5013103;28;20610;-45
2024/02/14 07:33:13;;;;;;;25.40;11.13;;;18.90;56.80;;;;;;5010808;28;20054;-48
2024/02/14 07:35:39;;;;;;;29.65;11.65;;;18.80;56.90;;;;;;5004980;28;20033;-47
2024/02/14 07:38:05;;;;;;;22.92;10.98;;;18.90;56.90;;;;;;5008601;28;20049;-48
2024/02/14 07:40:31;;;;;;;24.08;10.77;;;18.80;57.00;;;;;;5006238;28;20058;-47
2024/02/14 07:43:00;;;;;;;26.45;11.00;;;18.80;57.10;;;;;;5004482;28;20033;-49
2024/02/14 07:45:26;;;;;;;29.83;10.50;;;18.80;57.10;;;;;;5013202;28;20088;-48
2024/02/14 07:47:52;;;;;;;28.90;11.23;;;18.80;57.20;;;;;;5008924;28;20060;-45
2024/02/14 07:50:18;;;;;;;22.17;8.68;;;18.70;57.10;;;;;;5009554;28;20517;-46
2024/02/14 07:52:44;;;;;;;22.23;10.63;;;18.70;57.30;;;;;;5005770;28;20067;-48
2024/02/14 07:55:12;;;;;;;19.60;8.25;;;18.70;57.30;;;;;;5012040;28;20319;-49
2024/02/14 07:57:38;;;;;;;21.95;8.77;;;18.70;57.30;;;;;;5007711;28;20034;-49
2024/02/14 08:00:05;;;;;;;19.73;8.48;;;18.70;57.30;;;;;;5008840;28;20490;-50
2024/02/14 08:02:31;;;;;;;19.42;8.48;;;18.70;57.40;;;;;;5002767;28;20044;-46
2024/02/14 08:04:56;;;;;;;20.13;8.43;;;18.70;57.40;;;;;;5014289;28;20033;-45
2024/02/14 08:07:21;;;;;;;18.15;7.25;;;18.70;57.30;;;;;;5002687;28;20527;-46
2024/02/14 08:09:47;;;;;;;20.50;7.30;;;18.70;57.30;;;;;;5010098;28;20120;-47
2024/02/14 08:12:12;;;;;;;17.90;7.05;;;18.70;57.20;;;;;;5000666;28;20495;-46
2024/02/14 08:14:38;;;;;;;12.63;6.28;;;18.70;57.20;;;;;;5009563;28;20042;-46
2024/02/14 08:17:04;;;;;;;16.05;6.95;;;18.70;57.10;;;;;;5004167;28;20526;-47
2024/02/14 08:19:29;;;;;;;18.13;6.78;;;18.70;57.10;;;;;;5008221;28;20022;-52
2024/02/14 08:21:57;;;;;;;16.27;7.45;;;18.70;57.00;;;;;;5010066;28;20030;-48
2024/02/14 08:24:25;;;;;;;16.08;7.38;;;18.80;57.00;;;;;;5016045;28;20030;-44
2024/02/14 08:26:51;;;;;;;13.15;5.95;;;18.80;56.90;;;;;;5006722;28;20029;-45
2024/02/14 08:29:16;;;;;;;17.17;7.07;;;18.80;56.80;;;;;;5015903;28;20444;-49
2024/02/14 08:31:42;;;;;;;14.50;6.43;;;18.90;56.80;;;;;;5005029;28;20030;-48
2024/02/14 08:34:09;;;;;;;13.52;5.85;;;18.90;56.70;;;;;;5016298;28;20029;-47
2024/02/14 08:36:40;;;;;;;12.00;5.78;;;18.90;56.60;;;;;;5002942;28;20692;-46
2024/02/14 08:39:07;;;;;;;12.98;6.35;;;18.90;56.50;;;;;;5012731;28;20045;-46
2024/02/14 08:41:32;;;;;;;11.52;5.53;;;19.00;56.50;;;;;;4997449;28;20534;-50
2024/02/14 08:43:58;;;;;;;10.38;5.05;;;19.00;56.40;;;;;;5017485;28;20041;-46
2024/02/14 08:46:25;;;;;;;9.35;5.13;;;19.00;56.30;;;;;;5004411;28;20026;-47
2024/02/14 08:48:51;;;;;;;10.25;5.00;;;19.10;56.30;;;;;;5014654;28;20038;-47
2024/02/14 08:51:20;;;;;;;10.98;5.25;;;19.10;56.20;;;;;;5004740;28;20484;-48
2024/02/14 08:53:45;;;;;;;13.65;5.40;;;19.10;56.20;;;;;;5015646;28;20033;-45
2024/02/14 08:56:11;;;;;;;11.50;5.22;;;19.10;56.10;;;;;;5011001;28;20075;-48
2024/02/14 08:58:36;;;;;;;9.75;4.82;;;19.20;56.00;;;;;;5017819;28;20107;-46
2024/02/14 09:01:02;;;;;;;10.25;5.03;;;19.20;56.10;;;;;;5007665;28;20518;-51
2024/02/14 09:03:27;;;;;;;9.30;4.20;;;19.20;56.00;;;;;;5015662;28;20113;-50
2024/02/14 09:05:53;;;;;;;7.70;4.30;;;19.20;56.00;;;;;;5005089;28;20073;-52
2024/02/14 09:08:20;;;;;;;7.90;4.28;;;19.20;55.90;;;;;;5012252;28;20033;-50
2024/02/14 09:10:46;;;;;;;7.57;4.22;;;19.30;55.90;;;;;;5003868;28;20046;-45
2024/02/14 09:13:11;;;;;;;8.88;4.32;;;19.30;55.90;;;;;;5014148;28;20028;-47
2024/02/14 09:15:37;;;;;;;9.80;3.95;;;19.30;55.80;;;;;;5002656;28;20030;-48
2024/02/14 09:18:03;;;;;;;6.20;3.38;;;19.30;55.70;;;;;;5014031;28;20387;-49
2024/02/14 09:20:29;;;;;;;6.97;3.50;;;19.30;55.70;;;;;;4993648;28;20030;-45
2024/02/14 09:22:56;;;;;;;7.70;3.72;;;19.30;55.70;;;;;;5012986;28;20022;-47
2024/02/14 09:25:23;;;;;;;7.95;3.47;;;19.30;55.70;;;;;;5008280;28;20410;-49
2024/02/14 09:27:49;;;;;;;6.63;3.20;;;19.40;55.70;;;;;;5011945;28;20387;-47
2024/02/14 09:30:17;;;;;;;5.20;3.15;;;19.40;55.70;;;;;;5002755;28;20630;-45
2024/02/14 09:32:43;;;;;;;6.25;3.22;;;19.40;55.70;;;;;;5016234;28;20033;-49
2024/02/14 09:35:09;;;;;;;6.70;3.30;;;19.40;55.60;;;;;;5006304;28;20034;-46
2024/02/14 09:37:34;;;;;;;8.05;3.83;;;19.30;55.60;;;;;;5013201;28;20041;-45
2024/02/14 09:40:00;;;;;;;4.18;2.65;;;19.30;55.60;;;;;;5007054;28;21033;-47
2024/02/14 09:42:41;;;;;;;7.07;3.20;;;19.40;55.60;;;;;;5016266;28;20037;-49
2024/02/14 09:45:07;;;;;;;7.72;3.03;;;19.40;55.70;;;;;;5008116;28;20065;-47
2024/02/14 09:47:33;;;;;;;6.80;2.80;;;19.40;55.60;;;;;;5018375;28;20042;-47
2024/02/14 09:50:01;;;;;;;6.30;3.15;;;19.40;55.60;;;;;;5004996;28;20030;-47
2024/02/14 09:52:26;;;;;;;5.50;3.22;;;19.30;55.60;;;;;;5016504;28;20033;-49
2024/02/14 09:54:53;;;;;;;4.43;2.72;;;19.30;55.70;;;;;;5013682;28;20029;-47
2024/02/14 09:57:19;;;;;;;6.38;2.97;;;19.30;55.70;;;;;;5016218;28;20399;-46
2024/02/14 09:59:45;;;;;;;5.22;2.88;;;19.30;55.70;;;;;;5009486;28;20030;-46
2024/02/14 10:02:10;;;;;;;5.80;2.70;;;19.30;55.70;;;;;;5010723;28;20049;-49
2024/02/14 10:04:37;;;;;;;5.38;2.78;;;19.30;55.70;;;;;;5008656;28;20460;-48
2024/02/14 10:07:04;;;;;;;3.95;2.00;;;19.30;55.70;;;;;;5013903;28;20613;-48
2024/02/14 10:09:30;;;;;;;3.40;2.13;;;19.30;55.80;;;;;;5007575;28;20029;-47
2024/02/14 10:11:57;;;;;;;4.03;2.33;;;19.30;55.80;;;;;;5012698;28;20042;-48
2024/02/14 10:14:23;;;;;;;3.63;2.30;;;19.30;55.80;;;;;;5008082;28;20041;-49
2024/02/14 10:16:49;;;;;;;5.68;2.70;;;19.30;55.80;;;;;;5013870;28;20415;-50
2024/02/14 10:19:16;;;;;;;3.85;2.50;;;19.30;55.80;;;;;;5007764;28;20044;-47
2024/02/14 10:21:42;;;;;;;3.58;2.05;;;19.30;55.90;;;;;;5015100;28;20040;-47
2024/02/14 10:24:09;;;;;;;6.15;2.45;;;19.30;55.80;;;;;;5018299;28;20542;-46
2024/02/14 10:26:34;;;;;;;4.15;2.28;;;19.30;55.80;;;;;;5012409;28;20036;-59
2024/02/14 10:29:00;;;;;;;7.60;2.90;;;19.30;55.80;;;;;;5009299;28;20029;-48
2024/02/14 10:31:26;;;;;;;5.68;2.50;;;19.30;55.90;;;;;;5015977;28;20087;-45
2024/02/14 10:33:55;;;;;;;4.57;2.10;;;19.20;55.80;;;;;;5004845;28;20030;-47
2024/02/14 10:36:21;;;;;;;3.60;2.05;;;19.20;55.90;;;;;;5009947;28;20087;-49
2024/02/14 10:38:50;;;;;;;5.25;1.98;;;19.20;55.90;;;;;;5009351;28;20029;-51
2024/02/14 10:41:19;;;;;;;5.15;2.03;;;19.20;55.80;;;;;;5010507;28;20107;-47
2024/02/14 10:43:45;;;;;;;3.17;1.88;;;19.30;55.90;;;;;;5008335;28;20033;-47
2024/02/14 10:46:22;;;;;;;3.30;2.00;;;19.30;55.90;;;;;;5007918;28;20025;-49
2024/02/14 10:48:49;;;;;;;5.80;2.10;;;19.20;55.80;;;;;;5006282;28;20053;-46
2024/02/14 10:51:16;;;;;;;3.50;1.77;;;19.20;55.80;;;;;;5013590;28;20095;-46
2024/02/14 10:53:45;;;;;;;3.13;1.92;;;19.20;55.80;;;;;;5016163;28;20124;-48
2024/02/14 10:56:18;;;;;;;2.85;1.70;;;19.20;55.80;;;;;;5010539;28;20100;-48
2024/02/14 10:58:46;;;;;;;2.85;1.50;;;19.20;55.90;;;;;;5010975;28;20113;-50
2024/02/14 11:01:14;;;;;;;3.38;1.67;;;19.20;55.90;;;;;;5006912;28;20049;-49
2024/02/14 11:03:41;;;;;;;2.08;1.73;;;19.20;56.00;;;;;;5009005;28;20030;-49
2024/02/14 11:06:06;;;;;;;4.10;1.92;;;19.20;56.00;;;;;;5008096;28;20068;-49
2024/02/14 11:08:33;;;;;;;3.58;1.98;;;19.20;56.00;;;;;;5013499;28;20431;-48
2024/02/14 11:10:59;;;;;;;2.95;1.73;;;19.20;56.10;;;;;;5005219;28;20038;-49
2024/02/14 11:13:27;;;;;;;3.78;2.17;;;19.20;56.10;;;;;;5015182;28;20040;-47
2024/02/14 11:15:55;;;;;;;2.60;1.80;;;19.20;56.00;;;;;;5010417;28;20026;-49
2024/02/14 11:18:29;;;;;;;4.93;1.95;;;19.20;56.10;;;;;;5007942;28;20041;-49
2024/02/14 11:20:56;;;;;;;2.72;1.73;;;19.20;56.10;;;;;;5008827;28;20131;-48
2024/02/14 11:23:22;;;;;;;5.32;1.73;;;19.20;56.10;;;;;;5013352;28;20029;-48
2024/02/14 11:25:48;;;;;;;4.47;2.25;;;19.20;56.20;;;;;;5008854;28;20029;-49
2024/02/14 11:28:14;;;;;;;2.33;1.58;;;19.20;56.30;;;;;;5021938;28;20110;-48
2024/02/14 11:30:42;;;;;;;2.90;1.55;;;19.20;56.40;;;;;;5009117;28;20418;-47
2024/02/14 11:33:15;;;;;;;4.32;1.50;;;19.20;57.00;;;;;;5012903;28;20032;-49
2024/02/14 11:35:41;;;;;;;5.03;1.55;;;19.20;56.50;;;;;;5012488;28;20036;-49
2024/02/14 11:38:09;;;;;;;1.83;1.00;;;19.20;56.50;;;;;;5013123;28;20053;-50
2024/02/14 11:40:37;;;;;;;3.15;1.63;;;19.20;56.60;;;;;;5009438;28;20029;-49
2024/02/14 11:43:03;;;;;;;4.45;1.95;;;19.30;56.60;;;;;;5017210;28;20061;-49
2024/02/14 11:45:29;;;;;;;4.25;1.63;;;19.30;56.70;;;;;;5006196;28;20157;-49
2024/02/14 11:47:55;;;;;;;2.70;1.58;;;19.30;56.70;;;;;;5012410;28;20124;-48
2024/02/14 11:50:21;;;;;;;2.78;1.40;;;19.30;56.80;;;;;;5006700;28;20040;-48
2024/02/14 11:52:47;;;;;;;2.95;1.52;;;19.30;56.80;;;;;;5010646;28;20033;-48
2024/02/14 11:55:15;;;;;;;3.55;1.40;;;19.30;56.80;;;;;;5004871;28;20037;-49
2024/02/14 11:57:41;;;;;;;2.35;1.20;;;19.30;56.80;;;;;;5006900;28;20031;-49
2024/02/14 12:00:08;;;;;;;2.17;1.58;;;19.30;56.80;;;;;;5006913;28;20072;-50
2024/02/14 12:02:34;;;;;;;2.70;1.10;;;19.40;56.90;;;;;;5021324;28;20626;-48
2024/02/14 12:05:00;;;;;;;3.28;1.35;;;19.40;56.90;;;;;;5005607;28;20068;-48
2024/02/14 12:07:26;;;;;;;2.83;1.98;;;19.40;57.00;;;;;;5017587;28;20061;-49
2024/02/14 12:09:51;;;;;;;1.80;1.20;;;19.40;56.90;;;;;;5009808;28;20056;-49
2024/02/14 12:12:17;;;;;;;1.50;1.27;;;19.40;57.10;;;;;;5013137;28;20087;-46
2024/02/14 12:14:49;;;;;;;1.98;1.20;;;19.40;57.00;;;;;;5010978;28;20424;-49
2024/02/14 12:17:18;;;;;;;2.38;1.23;;;19.40;57.10;;;;;;5015424;28;20032;-46
2024/02/14 12:19:44;;;;;;;1.75;1.10;;;19.40;57.10;;;;;;5009664;28;20074;-48
2024/02/14 12:22:29;;;;;;;2.25;1.25;;;19.40;57.70;;;;;;5010545;28;20127;-49
2024/02/14 12:24:57;;;;;;;4.20;1.52;;;19.40;57.10;;;;;;5006843;28;20029;-46
2024/02/14 12:27:23;;;;;;;2.17;1.35;;;19.40;57.20;;;;;;5013740;28;20488;-48
2024/02/14 12:29:48;;;;;;;3.28;1.13;;;19.40;57.10;;;;;;5013568;28;20064;-49
2024/02/14 12:32:17;;;;;;;2.20;1.20;;;19.40;57.20;;;;;;5007942;28;20034;-47
2024/02/14 12:34:44;;;;;;;2.42;0.95;;;19.40;57.10;;;;;;5011250;28;20494;-45
2024/02/14 12:37:11;;;;;;;2.10;1.35;;;19.50;57.10;;;;;;5014817;28;20053;-57
2024/02/14 12:39:37;;;;;;;3.00;1.27;;;19.50;57.00;;;;;;5011045;28;20033;-53